CheckWX is a tool to help pilots better visualize weather data.  It is not intended as a substitute for an official pre-flight weather briefing.

01:01:47 UTC

KALS METAR
San Luis Valley Regional / Bergman Field Airport
Alamosa, Colorado, USA
Current

10 mins ago

KALS 210052Z AUTO 24014KT 10SM BKN100 11/M02 A3000 RMK AO2 PK WND 25053/2354 SLP131 T01111022
Observed
Apr-21 @ 00:52 UTC
Wind
  • 240° at 14 KTS
Visibility
10 SM
Flight Rules
VFR
Cloud Levels
  • Broken at 10,000' AGL
Temperature
11°C / 52°F
Dewpoint
-2°C / 28°F
Humidity
41%
Altimeter
30" Hg
Pressure
1015.92 hPa
Previous

38 mins ago

KALS 210024Z AUTO 24020G31KT 10SM FEW004 SCT110 11/M01 A3001 RMK AO2 PK WND 25053/2354 T01111006
Observed
Apr-21 @ 00:24 UTC
Wind
  • 240° at 20 KTS
  • Gusting to 31 KTS
Visibility
10 SM
Flight Rules
VFR
Cloud Levels
  • Few at 400' AGL
  • Scattered at 11,000' AGL
Temperature
11°C / 52°F
Dewpoint
-1°C / 30°F
Humidity
44%
Altimeter
30.01" Hg
Pressure
1016.22 hPa
Previous

49 mins ago

KALS 210013Z AUTO 25025G45KT 3SM HZ BKN004 BKN080 11/M01 A3001 RMK AO2 PK WND 25053/2354 PRESRR T01111011
Observed
Apr-21 @ 00:13 UTC
Wind
  • 250° at 25 KTS
  • Gusting to 45 KTS
Visibility
3 SM
Flight Rules
LIFR
Conditions
Haze
Cloud Levels
  • Broken at 400' AGL
  • Broken at 8,000' AGL
Temperature
11°C / 52°F
Dewpoint
-1°C / 30°F
Humidity
44%
Altimeter
30.01" Hg
Pressure
1016.22 hPa